sensor_id;sensor_type;location;lat;lon;timestamp;pressure;altitude;pressure_sealevel;temperature;humidity
76762;BME280;65705;51.032;13.790;2023-05-19T00:00:57;101256.44;;;13.37;53.25
76762;BME280;65705;51.032;13.790;2023-05-19T00:03:23;101249.22;;;13.39;53.46
76762;BME280;65705;51.032;13.790;2023-05-19T00:05:51;101248.25;;;13.40;52.74
76762;BME280;65705;51.032;13.790;2023-05-19T00:08:18;101252.56;;;13.32;53.55
76762;BME280;65705;51.032;13.790;2023-05-19T00:10:45;101247.06;;;13.25;54.07
76762;BME280;65705;51.032;13.790;2023-05-19T00:13:11;101251.81;;;13.22;54.07
76762;BME280;65705;51.032;13.790;2023-05-19T00:15:37;101251.25;;;13.28;53.66
76762;BME280;65705;51.032;13.790;2023-05-19T00:18:03;101244.97;;;13.29;54.00
76762;BME280;65705;51.032;13.790;2023-05-19T00:20:28;101248.44;;;13.29;53.92
76762;BME280;65705;51.032;13.790;2023-05-19T00:22:54;101247.47;;;13.30;54.24
76762;BME280;65705;51.032;13.790;2023-05-19T00:25:20;101243.72;;;13.33;54.09
76762;BME280;65705;51.032;13.790;2023-05-19T00:27:46;101238.75;;;13.30;53.67
76762;BME280;65705;51.032;13.790;2023-05-19T00:30:12;101244.00;;;13.30;53.61
76762;BME280;65705;51.032;13.790;2023-05-19T00:32:38;101231.78;;;13.29;54.36
76762;BME280;65705;51.032;13.790;2023-05-19T00:35:04;101232.25;;;13.24;54.54
76762;BME280;65705;51.032;13.790;2023-05-19T00:37:30;101234.19;;;13.22;54.30
76762;BME280;65705;51.032;13.790;2023-05-19T00:39:55;101236.16;;;13.20;54.80
76762;BME280;65705;51.032;13.790;2023-05-19T00:42:22;101238.25;;;13.17;55.19
76762;BME280;65705;51.032;13.790;2023-05-19T00:44:48;101240.50;;;13.12;55.97
76762;BME280;65705;51.032;13.790;2023-05-19T00:47:14;101241.31;;;13.12;55.78
76762;BME280;65705;51.032;13.790;2023-05-19T00:49:42;101245.53;;;13.05;55.89
76762;BME280;65705;51.032;13.790;2023-05-19T00:52:07;101239.56;;;13.03;56.09
76762;BME280;65705;51.032;13.790;2023-05-19T00:54:33;101245.03;;;12.92;55.54
76762;BME280;65705;51.032;13.790;2023-05-19T00:57:00;101239.63;;;12.84;55.95
76762;BME280;65705;51.032;13.790;2023-05-19T00:59:26;101233.69;;;12.82;56.10
76762;BME280;65705;51.032;13.790;2023-05-19T01:01:52;101233.28;;;12.77;56.13
76762;BME280;65705;51.032;13.790;2023-05-19T01:04:18;101236.66;;;12.69;56.39
76762;BME280;65705;51.032;13.790;2023-05-19T01:06:48;101237.63;;;12.68;57.17
76762;BME280;65705;51.032;13.790;2023-05-19T01:09:22;101240.16;;;12.60;57.94
76762;BME280;65705;51.032;13.790;2023-05-19T01:11:49;101237.28;;;12.54;58.36
76762;BME280;65705;51.032;13.790;2023-05-19T01:14:16;101239.66;;;12.47;57.96
76762;BME280;65705;51.032;13.790;2023-05-19T01:16:48;101236.88;;;12.39;58.35
76762;BME280;65705;51.032;13.790;2023-05-19T01:22:26;101230.25;;;12.35;59.18
76762;BME280;65705;51.032;13.790;2023-05-19T01:30:47;101229.19;;;12.19;59.30
76762;BME280;65705;51.032;13.790;2023-05-19T01:33:17;101228.38;;;12.09;59.60
76762;BME280;65705;51.032;13.790;2023-05-19T01:35:46;101232.78;;;12.08;59.96
76762;BME280;65705;51.032;13.790;2023-05-19T01:38:15;101231.97;;;12.08;60.46
76762;BME280;65705;51.032;13.790;2023-05-19T01:40:42;101239.59;;;12.11;59.70
76762;BME280;65705;51.032;13.790;2023-05-19T01:43:13;101234.31;;;12.11;59.86
76762;BME280;65705;51.032;13.790;2023-05-19T01:45:39;101237.94;;;12.10;59.10
76762;BME280;65705;51.032;13.790;2023-05-19T01:48:06;101248.47;;;12.10;59.83
76762;BME280;65705;51.032;13.790;2023-05-19T01:50:32;101247.22;;;12.04;59.27
76762;BME280;65705;51.032;13.790;2023-05-19T01:52:59;101237.78;;;12.02;60.15
76762;BME280;65705;51.032;13.790;2023-05-19T01:55:24;101236.56;;;11.96;60.35
76762;BME280;65705;51.032;13.790;2023-05-19T02:03:36;101235.88;;;11.85;60.64
76762;BME280;65705;51.032;13.790;2023-05-19T02:08:42;101229.63;;;11.86;61.66
76762;BME280;65705;51.032;13.790;2023-05-19T02:11:35;101228.53;;;11.79;61.68
76762;BME280;65705;51.032;13.790;2023-05-19T02:14:17;101234.91;;;11.76;61.38
76762;BME280;65705;51.032;13.790;2023-05-19T02:16:46;101229.78;;;11.75;61.24
76762;BME280;65705;51.032;13.790;2023-05-19T02:19:30;101231.03;;;11.71;61.50
76762;BME280;65705;51.032;13.790;2023-05-19T02:21:57;101224.41;;;11.67;61.87
76762;BME280;65705;51.032;13.790;2023-05-19T02:24:22;101224.53;;;11.65;62.20
76762;BME280;65705;51.032;13.790;2023-05-19T02:26:52;101227.03;;;11.67;62.12
76762;BME280;65705;51.032;13.790;2023-05-19T02:29:19;101228.69;;;11.68;62.49
76762;BME280;65705;51.032;13.790;2023-05-19T02:31:45;101218.44;;;11.64;62.19
76762;BME280;65705;51.032;13.790;2023-05-19T02:34:11;101231.59;;;11.64;62.42
76762;BME280;65705;51.032;13.790;2023-05-19T02:36:39;101227.41;;;11.62;62.56
76762;BME280;65705;51.032;13.790;2023-05-19T02:39:09;101224.41;;;11.67;62.50
76762;BME280;65705;51.032;13.790;2023-05-19T02:41:36;101222.47;;;11.69;62.80
76762;BME280;65705;51.032;13.790;2023-05-19T02:44:02;101224.94;;;11.70;62.93
76762;BME280;65705;51.032;13.790;2023-05-19T02:46:29;101226.75;;;11.70;62.90
76762;BME280;65705;51.032;13.790;2023-05-19T02:48:55;101230.06;;;11.72;62.93
76762;BME280;65705;51.032;13.790;2023-05-19T02:51:20;101227.16;;;11.75;62.79
76762;BME280;65705;51.032;13.790;2023-05-19T02:53:46;101220.25;;;11.74;63.02
76762;BME280;65705;51.032;13.790;2023-05-19T02:56:12;101224.66;;;11.73;63.09
76762;BME280;65705;51.032;13.790;2023-05-19T02:58:38;101220.94;;;11.66;63.08
76762;BME280;65705;51.032;13.790;2023-05-19T03:01:04;101215.47;;;11.58;63.74
76762;BME280;65705;51.032;13.790;2023-05-19T03:03:30;101217.03;;;11.60;63.80
76762;BME280;65705;51.032;13.790;2023-05-19T03:05:56;101216.19;;;11.50;64.23
76762;BME280;65705;51.032;13.790;2023-05-19T03:08:22;101213.41;;;11.42;64.14
76762;BME280;65705;51.032;13.790;2023-05-19T03:10:47;101210.50;;;11.36;64.79
76762;BME280;65705;51.032;13.790;2023-05-19T03:13:13;101207.31;;;11.23;65.23
76762;BME280;65705;51.032;13.790;2023-05-19T03:15:41;101207.69;;;11.09;65.84
76762;BME280;65705;51.032;13.790;2023-05-19T03:18:07;101207.38;;;10.93;66.11
76762;BME280;65705;51.032;13.790;2023-05-19T03:20:33;101212.34;;;10.86;66.72
76762;BME280;65705;51.032;13.790;2023-05-19T03:23:00;101209.13;;;10.73;67.02
76762;BME280;65705;51.032;13.790;2023-05-19T03:25:25;101214.78;;;10.78;66.79
76762;BME280;65705;51.032;13.790;2023-05-19T03:27:52;101224.78;;;10.84;66.87
76762;BME280;65705;51.032;13.790;2023-05-19T03:30:17;101225.59;;;10.85;67.10
76762;BME280;65705;51.032;13.790;2023-05-19T03:33:06;101225.72;;;10.83;67.24
76762;BME280;65705;51.032;13.790;2023-05-19T03:35:32;101226.03;;;10.90;67.48
76762;BME280;65705;51.032;13.790;2023-05-19T03:37:58;101221.34;;;10.93;67.27
76762;BME280;65705;51.032;13.790;2023-05-19T03:40:24;101219.44;;;10.95;67.19
76762;BME280;65705;51.032;13.790;2023-05-19T03:42:56;101225.06;;;10.91;67.32
76762;BME280;65705;51.032;13.790;2023-05-19T03:45:22;101227.41;;;10.84;67.38
76762;BME280;65705;51.032;13.790;2023-05-19T03:47:49;101238.06;;;10.92;66.95
76762;BME280;65705;51.032;13.790;2023-05-19T03:50:44;101237.81;;;10.95;66.55
76762;BME280;65705;51.032;13.790;2023-05-19T03:53:22;101234.06;;;10.98;66.24
76762;BME280;65705;51.032;13.790;2023-05-19T03:55:48;101229.50;;;11.00;66.20
76762;BME280;65705;51.032;13.790;2023-05-19T03:58:15;101232.25;;;10.89;66.59
76762;BME280;65705;51.032;13.790;2023-05-19T04:00:41;101231.69;;;10.85;66.52
76762;BME280;65705;51.032;13.790;2023-05-19T04:03:07;101236.66;;;10.79;67.22
76762;BME280;65705;51.032;13.790;2023-05-19T04:05:33;101227.63;;;10.72;67.40
76762;BME280;65705;51.032;13.790;2023-05-19T04:07:58;101232.56;;;10.65;67.65
76762;BME280;65705;51.032;13.790;2023-05-19T04:10:24;101235.66;;;10.70;67.47
76762;BME280;65705;51.032;13.790;2023-05-19T04:12:50;101238.69;;;10.75;67.45
76762;BME280;65705;51.032;13.790;2023-05-19T04:15:16;101243.31;;;10.83;67.19
76762;BME280;65705;51.032;13.790;2023-05-19T04:17:41;101232.56;;;10.95;66.74
76762;BME280;65705;51.032;13.790;2023-05-19T04:20:08;101228.84;;;11.07;66.48
76762;BME280;65705;51.032;13.790;2023-05-19T04:22:34;101230.53;;;11.18;66.29
76762;BME280;65705;51.032;13.790;2023-05-19T04:25:00;101229.16;;;11.23;66.46
76762;BME280;65705;51.032;13.790;2023-05-19T04:27:26;101229.16;;;11.33;66.17
76762;BME280;65705;51.032;13.790;2023-05-19T04:29:54;101226.28;;;11.36;65.91
76762;BME280;65705;51.032;13.790;2023-05-19T04:32:20;101223.09;;;11.42;65.40
76762;BME280;65705;51.032;13.790;2023-05-19T04:34:47;101226.00;;;11.48;65.57
76762;BME280;65705;51.032;13.790;2023-05-19T04:37:19;101232.91;;;11.49;65.47
76762;BME280;65705;51.032;13.790;2023-05-19T04:39:45;101230.16;;;11.41;65.58
76762;BME280;65705;51.032;13.790;2023-05-19T04:42:12;101237.47;;;11.47;65.57
76762;BME280;65705;51.032;13.790;2023-05-19T04:44:38;101228.50;;;11.50;65.29
76762;BME280;65705;51.032;13.790;2023-05-19T04:47:08;101226.56;;;11.52;65.50
76762;BME280;65705;51.032;13.790;2023-05-19T04:49:34;101227.28;;;11.54;65.59
76762;BME280;65705;51.032;13.790;2023-05-19T04:52:05;101218.94;;;11.58;65.43
76762;BME280;65705;51.032;13.790;2023-05-19T04:54:36;101226.59;;;11.61;65.46
76762;BME280;65705;51.032;13.790;2023-05-19T04:57:02;101216.22;;;11.70;65.30
76762;BME280;65705;51.032;13.790;2023-05-19T04:59:30;101218.56;;;11.73;65.10
76762;BME280;65705;51.032;13.790;2023-05-19T05:01:56;101219.81;;;11.78;64.51
76762;BME280;65705;51.032;13.790;2023-05-19T05:04:24;101216.50;;;11.86;64.43
76762;BME280;65705;51.032;13.790;2023-05-19T05:06:50;101218.97;;;11.87;62.63
76762;BME280;65705;51.032;13.790;2023-05-19T05:09:17;101219.13;;;11.95;62.24
76762;BME280;65705;51.032;13.790;2023-05-19T05:11:44;101227.97;;;12.04;61.28
76762;BME280;65705;51.032;13.790;2023-05-19T05:14:10;101225.59;;;12.10;60.59
76762;BME280;65705;51.032;13.790;2023-05-19T05:16:37;101219.34;;;12.21;60.56
76762;BME280;65705;51.032;13.790;2023-05-19T05:19:03;101221.00;;;12.31;60.53
76762;BME280;65705;51.032;13.790;2023-05-19T05:21:30;101218.91;;;12.35;59.57
76762;BME280;65705;51.032;13.790;2023-05-19T05:23:57;101222.50;;;12.34;59.88
76762;BME280;65705;51.032;13.790;2023-05-19T05:26:29;101211.66;;;12.37;59.18
76762;BME280;65705;51.032;13.790;2023-05-19T05:28:55;101217.91;;;12.45;59.16
76762;BME280;65705;51.032;13.790;2023-05-19T05:31:21;101215.22;;;12.55;58.99
76762;BME280;65705;51.032;13.790;2023-05-19T05:33:47;101224.50;;;12.59;58.71
76762;BME280;65705;51.032;13.790;2023-05-19T05:36:14;101213.75;;;12.43;59.45
76762;BME280;65705;51.032;13.790;2023-05-19T05:38:41;101217.44;;;12.50;59.37
76762;BME280;65705;51.032;13.790;2023-05-19T05:41:07;101218.81;;;12.63;59.07
76762;BME280;65705;51.032;13.790;2023-05-19T05:43:33;101222.94;;;12.66;59.07
76762;BME280;65705;51.032;13.790;2023-05-19T05:46:02;101230.66;;;12.77;58.72
76762;BME280;65705;51.032;13.790;2023-05-19T05:48:28;101226.84;;;12.89;58.14
76762;BME280;65705;51.032;13.790;2023-05-19T05:50:55;101225.69;;;13.01;58.32
76762;BME280;65705;51.032;13.790;2023-05-19T05:53:28;101228.81;;;13.14;57.86
76762;BME280;65705;51.032;13.790;2023-05-19T05:55:56;101228.66;;;13.16;57.81
76762;BME280;65705;51.032;13.790;2023-05-19T05:58:26;101230.31;;;13.26;57.83
76762;BME280;65705;51.032;13.790;2023-05-19T06:00:53;101235.50;;;13.36;57.10
76762;BME280;65705;51.032;13.790;2023-05-19T06:03:22;101233.63;;;13.46;57.00
76762;BME280;65705;51.032;13.790;2023-05-19T06:05:49;101235.22;;;13.56;56.93
76762;BME280;65705;51.032;13.790;2023-05-19T06:08:15;101242.13;;;13.57;56.42
76762;BME280;65705;51.032;13.790;2023-05-19T06:10:42;101233.47;;;13.65;56.43
76762;BME280;65705;51.032;13.790;2023-05-19T06:13:10;101231.88;;;13.72;56.55
76762;BME280;65705;51.032;13.790;2023-05-19T06:15:38;101234.75;;;13.78;56.68
76762;BME280;65705;51.032;13.790;2023-05-19T06:18:18;101232.09;;;13.78;57.00
76762;BME280;65705;51.032;13.790;2023-05-19T06:20:46;101237.00;;;13.91;56.81
76762;BME280;65705;51.032;13.790;2023-05-19T06:23:12;101238.72;;;14.00;55.89
76762;BME280;65705;51.032;13.790;2023-05-19T06:25:38;101234.34;;;14.09;55.54
76762;BME280;65705;51.032;13.790;2023-05-19T06:28:04;101237.56;;;14.20;55.19
76762;BME280;65705;51.032;13.790;2023-05-19T06:30:30;101238.47;;;14.29;55.51
76762;BME280;65705;51.032;13.790;2023-05-19T06:33:08;101235.69;;;14.30;55.21
76762;BME280;65705;51.032;13.790;2023-05-19T06:35:34;101234.53;;;14.33;55.35
76762;BME280;65705;51.032;13.790;2023-05-19T06:38:00;101221.50;;;14.31;55.27
76762;BME280;65705;51.032;13.790;2023-05-19T06:40:26;101227.09;;;14.28;55.17
76762;BME280;65705;51.032;13.790;2023-05-19T06:42:52;101230.81;;;14.26;55.80
76762;BME280;65705;51.032;13.790;2023-05-19T06:45:26;101223.28;;;14.31;55.48
76762;BME280;65705;51.032;13.790;2023-05-19T06:47:53;101224.81;;;14.33;54.36
76762;BME280;65705;51.032;13.790;2023-05-19T06:50:20;101216.22;;;14.31;55.19
76762;BME280;65705;51.032;13.790;2023-05-19T06:52:47;101214.56;;;14.30;55.73
76762;BME280;65705;51.032;13.790;2023-05-19T06:55:13;101217.56;;;14.35;55.28
76762;BME280;65705;51.032;13.790;2023-05-19T06:57:39;101224.56;;;14.44;54.23
76762;BME280;65705;51.032;13.790;2023-05-19T07:00:06;101223.19;;;14.40;54.83
76762;BME280;65705;51.032;13.790;2023-05-19T07:02:37;101223.88;;;14.42;55.41
76762;BME280;65705;51.032;13.790;2023-05-19T07:05:03;101215.88;;;14.60;55.77
76762;BME280;65705;51.032;13.790;2023-05-19T07:07:29;101214.31;;;14.75;54.33
76762;BME280;65705;51.032;13.790;2023-05-19T07:09:59;101218.47;;;14.86;55.55
76762;BME280;65705;51.032;13.790;2023-05-19T07:12:26;101220.97;;;14.95;53.65
76762;BME280;65705;51.032;13.790;2023-05-19T07:14:52;101201.84;;;15.01;52.55
76762;BME280;65705;51.032;13.790;2023-05-19T07:17:18;101207.78;;;15.03;52.62
76762;BME280;65705;51.032;13.790;2023-05-19T07:19:45;101203.53;;;15.10;53.15
76762;BME280;65705;51.032;13.790;2023-05-19T07:22:10;101208.81;;;15.10;52.64
76762;BME280;65705;51.032;13.790;2023-05-19T07:24:36;101208.84;;;15.18;52.37
76762;BME280;65705;51.032;13.790;2023-05-19T07:27:02;101200.91;;;15.18;52.59
76762;BME280;65705;51.032;13.790;2023-05-19T07:29:28;101206.22;;;15.26;52.92
76762;BME280;65705;51.032;13.790;2023-05-19T07:31:53;101205.91;;;15.37;52.96
76762;BME280;65705;51.032;13.790;2023-05-19T07:34:23;101201.75;;;15.35;53.23
76762;BME280;65705;51.032;13.790;2023-05-19T07:36:49;101208.53;;;15.37;53.20
76762;BME280;65705;51.032;13.790;2023-05-19T07:39:16;101206.38;;;15.25;52.70
76762;BME280;65705;51.032;13.790;2023-05-19T07:41:41;101205.53;;;15.16;53.07
76762;BME280;65705;51.032;13.790;2023-05-19T07:44:07;101205.19;;;15.19;53.39
76762;BME280;65705;51.032;13.790;2023-05-19T07:46:33;101207.69;;;15.21;53.27
76762;BME280;65705;51.032;13.790;2023-05-19T07:48:59;101200.91;;;15.26;52.56
76762;BME280;65705;51.032;13.790;2023-05-19T07:51:25;101198.28;;;15.26;53.05
76762;BME280;65705;51.032;13.790;2023-05-19T07:53:51;101197.44;;;15.26;52.46
76762;BME280;65705;51.032;13.790;2023-05-19T07:56:17;101188.31;;;15.20;52.12
76762;BME280;65705;51.032;13.790;2023-05-19T07:58:43;101192.47;;;15.23;53.10
76762;BME280;65705;51.032;13.790;2023-05-19T08:01:09;101182.56;;;15.33;52.21
76762;BME280;65705;51.032;13.790;2023-05-19T08:03:35;101184.91;;;15.36;51.15
76762;BME280;65705;51.032;13.790;2023-05-19T08:06:01;101182.06;;;15.29;51.20
76762;BME280;65705;51.032;13.790;2023-05-19T08:08:26;101187.22;;;15.31;51.03
76762;BME280;65705;51.032;13.790;2023-05-19T08:10:52;101190.00;;;15.29;50.22
76762;BME280;65705;51.032;13.790;2023-05-19T08:13:18;101192.16;;;15.26;50.56
76762;BME280;65705;51.032;13.790;2023-05-19T08:15:44;101189.84;;;15.23;50.76
76762;BME280;65705;51.032;13.790;2023-05-19T08:18:10;101191.63;;;15.22;51.00
76762;BME280;65705;51.032;13.790;2023-05-19T08:20:36;101180.91;;;15.24;51.24
76762;BME280;65705;51.032;13.790;2023-05-19T08:23:02;101186.03;;;15.25;51.46
76762;BME280;65705;51.032;13.790;2023-05-19T08:25:27;101187.72;;;15.34;51.67
76762;BME280;65705;51.032;13.790;2023-05-19T08:27:53;101181.97;;;15.47;50.51
76762;BME280;65705;51.032;13.790;2023-05-19T08:30:19;101182.63;;;15.65;49.72
76762;BME280;65705;51.032;13.790;2023-05-19T08:32:45;101178.16;;;15.81;50.63
76762;BME280;65705;51.032;13.790;2023-05-19T08:35:11;101179.16;;;15.80;50.71
76762;BME280;65705;51.032;13.790;2023-05-19T08:37:37;101179.16;;;15.89;50.64
76762;BME280;65705;51.032;13.790;2023-05-19T08:40:03;101172.69;;;15.83;50.52
76762;BME280;65705;51.032;13.790;2023-05-19T08:42:31;101165.91;;;15.89;50.80
76762;BME280;65705;51.032;13.790;2023-05-19T08:44:58;101177.81;;;15.93;51.37
76762;BME280;65705;51.032;13.790;2023-05-19T08:47:24;101169.22;;;15.91;51.30
76762;BME280;65705;51.032;13.790;2023-05-19T08:49:57;101167.41;;;15.91;51.25
76762;BME280;65705;51.032;13.790;2023-05-19T08:52:42;101167.59;;;15.90;50.79
76762;BME280;65705;51.032;13.790;2023-05-19T08:55:38;101160.97;;;15.86;51.47
76762;BME280;65705;51.032;13.790;2023-05-19T08:58:05;101170.72;;;15.93;51.62
76762;BME280;65705;51.032;13.790;2023-05-19T09:00:32;101166.22;;;16.02;51.89
76762;BME280;65705;51.032;13.790;2023-05-19T09:02:59;101176.13;;;16.16;50.50
76762;BME280;65705;51.032;13.790;2023-05-19T09:05:25;101176.47;;;16.13;50.29
76762;BME280;65705;51.032;13.790;2023-05-19T09:07:51;101169.34;;;16.21;51.13
76762;BME280;65705;51.032;13.790;2023-05-19T09:10:16;101165.53;;;16.24;50.07
76762;BME280;65705;51.032;13.790;2023-05-19T09:12:43;101167.84;;;16.27;49.63
76762;BME280;65705;51.032;13.790;2023-05-19T09:15:10;101169.66;;;16.34;49.03
76762;BME280;65705;51.032;13.790;2023-05-19T09:17:37;101160.50;;;16.45;49.11
76762;BME280;65705;51.032;13.790;2023-05-19T09:20:04;101164.16;;;16.52;49.55
76762;BME280;65705;51.032;13.790;2023-05-19T09:22:42;101157.56;;;16.78;48.28
76762;BME280;65705;51.032;13.790;2023-05-19T09:25:21;101150.16;;;16.74;47.33
76762;BME280;65705;51.032;13.790;2023-05-19T09:27:47;101162.50;;;16.51;47.42
76762;BME280;65705;51.032;13.790;2023-05-19T09:30:15;101160.19;;;16.48;47.66
76762;BME280;65705;51.032;13.790;2023-05-19T09:32:41;101155.88;;;16.39;47.22
76762;BME280;65705;51.032;13.790;2023-05-19T09:35:07;101162.00;;;16.39;47.34
76762;BME280;65705;51.032;13.790;2023-05-19T09:37:33;101155.56;;;16.42;46.77
76762;BME280;65705;51.032;13.790;2023-05-19T09:39:59;101155.84;;;16.55;47.54
76762;BME280;65705;51.032;13.790;2023-05-19T09:42:25;101161.59;;;16.66;46.99
76762;BME280;65705;51.032;13.790;2023-05-19T09:44:59;101151.66;;;16.68;46.88
76762;BME280;65705;51.032;13.790;2023-05-19T09:47:25;101149.50;;;16.64;46.97
76762;BME280;65705;51.032;13.790;2023-05-19T09:49:52;101147.88;;;16.63;47.43
76762;BME280;65705;51.032;13.790;2023-05-19T09:52:19;101148.19;;;16.60;46.54
76762;BME280;65705;51.032;13.790;2023-05-19T09:54:45;101143.13;;;16.50;47.43
76762;BME280;65705;51.032;13.790;2023-05-19T09:57:14;101145.53;;;16.60;47.65
76762;BME280;65705;51.032;13.790;2023-05-19T09:59:40;101146.94;;;16.48;47.43
76762;BME280;65705;51.032;13.790;2023-05-19T10:02:14;101130.72;;;16.51;47.72
76762;BME280;65705;51.032;13.790;2023-05-19T10:04:41;101134.69;;;16.47;47.85
76762;BME280;65705;51.032;13.790;2023-05-19T10:07:08;101125.72;;;16.56;47.40
76762;BME280;65705;51.032;13.790;2023-05-19T10:09:36;101131.63;;;16.66;47.53
76762;BME280;65705;51.032;13.790;2023-05-19T10:12:04;101121.69;;;16.60;47.42
76762;BME280;65705;51.032;13.790;2023-05-19T10:14:30;101114.88;;;16.65;47.96
76762;BME280;65705;51.032;13.790;2023-05-19T10:16:57;101118.53;;;16.64;47.37
76762;BME280;65705;51.032;13.790;2023-05-19T10:19:27;101111.06;;;16.68;47.70
76762;BME280;65705;51.032;13.790;2023-05-19T10:21:54;101113.69;;;16.76;48.82
76762;BME280;65705;51.032;13.790;2023-05-19T10:24:20;101121.06;;;16.89;48.48
76762;BME280;65705;51.032;13.790;2023-05-19T10:26:53;101113.16;;;16.80;48.02
76762;BME280;65705;51.032;13.790;2023-05-19T10:29:24;101122.22;;;16.86;48.76
76762;BME280;65705;51.032;13.790;2023-05-19T10:31:52;101114.50;;;16.76;48.86
76762;BME280;65705;51.032;13.790;2023-05-19T10:37:15;101110.19;;;16.75;49.70
76762;BME280;65705;51.032;13.790;2023-05-19T10:39:43;101107.84;;;16.80;49.59
76762;BME280;65705;51.032;13.790;2023-05-19T10:42:20;101101.53;;;16.81;49.81
76762;BME280;65705;51.032;13.790;2023-05-19T10:47:22;101096.56;;;17.09;49.41
76762;BME280;65705;51.032;13.790;2023-05-19T10:49:51;101101.50;;;17.12;49.47
76762;BME280;65705;51.032;13.790;2023-05-19T10:52:22;101105.50;;;17.31;49.41
76762;BME280;65705;51.032;13.790;2023-05-19T10:54:50;101108.63;;;17.34;48.48
76762;BME280;65705;51.032;13.790;2023-05-19T10:57:23;101107.94;;;17.40;47.93
76762;BME280;65705;51.032;13.790;2023-05-19T10:59:50;101103.97;;;17.36;48.63
76762;BME280;65705;51.032;13.790;2023-05-19T11:05:08;101102.06;;;17.45;48.37
76762;BME280;65705;51.032;13.790;2023-05-19T11:07:34;101110.13;;;17.37;48.63
76762;BME280;65705;51.032;13.790;2023-05-19T11:10:04;101104.06;;;17.43;48.71
76762;BME280;65705;51.032;13.790;2023-05-19T11:12:39;101113.47;;;17.31;49.34
76762;BME280;65705;51.032;13.790;2023-05-19T11:15:06;101111.00;;;17.29;48.67
76762;BME280;65705;51.032;13.790;2023-05-19T11:17:34;101110.16;;;17.29;49.41
76762;BME280;65705;51.032;13.790;2023-05-19T11:20:00;101112.94;;;17.35;48.53
76762;BME280;65705;51.032;13.790;2023-05-19T11:22:26;101100.31;;;17.37;47.73
76762;BME280;65705;51.032;13.790;2023-05-19T11:24:55;101094.31;;;17.21;48.84
76762;BME280;65705;51.032;13.790;2023-05-19T11:27:30;101088.19;;;17.20;49.24
76762;BME280;65705;51.032;13.790;2023-05-19T11:30:01;101086.97;;;17.23;49.08
76762;BME280;65705;51.032;13.790;2023-05-19T11:32:34;101095.78;;;17.23;48.82
76762;BME280;65705;51.032;13.790;2023-05-19T11:35:04;101103.03;;;17.29;48.98
76762;BME280;65705;51.032;13.790;2023-05-19T11:37:33;101101.38;;;17.28;48.71
76762;BME280;65705;51.032;13.790;2023-05-19T11:40:03;101095.72;;;17.31;49.36
76762;BME280;65705;51.032;13.790;2023-05-19T11:42:32;101096.63;;;17.24;49.30
76762;BME280;65705;51.032;13.790;2023-05-19T11:45:02;101095.25;;;17.28;49.38
76762;BME280;65705;51.032;13.790;2023-05-19T11:47:31;101093.69;;;17.19;49.46
76762;BME280;65705;51.032;13.790;2023-05-19T11:49:59;101093.78;;;17.25;49.86
76762;BME280;65705;51.032;13.790;2023-05-19T11:52:25;101092.13;;;17.24;49.29
76762;BME280;65705;51.032;13.790;2023-05-19T11:54:58;101094.34;;;17.35;49.29
76762;BME280;65705;51.032;13.790;2023-05-19T11:57:25;101091.66;;;17.43;48.97
76762;BME280;65705;51.032;13.790;2023-05-19T11:59:51;101097.97;;;17.42;48.77
76762;BME280;65705;51.032;13.790;2023-05-19T12:02:24;101108.53;;;17.50;49.39
76762;BME280;65705;51.032;13.790;2023-05-19T12:04:52;101091.91;;;17.56;48.45
76762;BME280;65705;51.032;13.790;2023-05-19T12:07:21;101091.91;;;17.56;49.08
76762;BME280;65705;51.032;13.790;2023-05-19T12:09:49;101100.41;;;17.66;49.04
76762;BME280;65705;51.032;13.790;2023-05-19T12:12:16;101104.09;;;17.80;48.88
76762;BME280;65705;51.032;13.790;2023-05-19T12:14:45;101097.41;;;17.69;48.34
76762;BME280;65705;51.032;13.790;2023-05-19T12:17:12;101090.72;;;17.73;48.01
76762;BME280;65705;51.032;13.790;2023-05-19T12:19:39;101091.13;;;17.85;48.71
76762;BME280;65705;51.032;13.790;2023-05-19T12:22:06;101089.91;;;17.87;48.61
76762;BME280;65705;51.032;13.790;2023-05-19T12:24:34;101094.09;;;17.67;48.86
76762;BME280;65705;51.032;13.790;2023-05-19T12:27:10;101086.44;;;17.72;48.76
76762;BME280;65705;51.032;13.790;2023-05-19T12:29:39;101082.78;;;17.88;48.06
76762;BME280;65705;51.032;13.790;2023-05-19T12:32:08;101075.91;;;17.94;48.75
76762;BME280;65705;51.032;13.790;2023-05-19T12:34:37;101072.25;;;17.95;48.91
76762;BME280;65705;51.032;13.790;2023-05-19T12:37:04;101087.47;;;18.01;48.13
76762;BME280;65705;51.032;13.790;2023-05-19T12:39:30;101077.75;;;17.93;48.08
76762;BME280;65705;51.032;13.790;2023-05-19T12:42:05;101077.03;;;17.99;48.04
76762;BME280;65705;51.032;13.790;2023-05-19T12:44:52;101077.38;;;17.81;48.48
76762;BME280;65705;51.032;13.790;2023-05-19T12:47:19;101079.84;;;17.83;49.23
76762;BME280;65705;51.032;13.790;2023-05-19T12:50:02;101073.53;;;17.99;48.53
76762;BME280;65705;51.032;13.790;2023-05-19T12:52:31;101081.78;;;18.18;48.40
76762;BME280;65705;51.032;13.790;2023-05-19T12:55:04;101075.16;;;18.14;48.02
76762;BME280;65705;51.032;13.790;2023-05-19T12:57:36;101075.72;;;18.10;48.29
76762;BME280;65705;51.032;13.790;2023-05-19T13:00:07;101072.06;;;18.11;48.61
76762;BME280;65705;51.032;13.790;2023-05-19T13:02:54;101070.88;;;18.13;48.35
76762;BME280;65705;51.032;13.790;2023-05-19T13:05:20;101073.25;;;17.79;49.25
76762;BME280;65705;51.032;13.790;2023-05-19T13:07:54;101067.81;;;17.58;49.41
76762;BME280;65705;51.032;13.790;2023-05-19T13:10:20;101077.34;;;17.67;49.30